sensor_id;sensor_type;location;lat;lon;timestamp;P1;durP1;ratioP1;P2;durP2;ratioP2
64826;SDS011;51265;53.972;12.286;2023-05-23T00:01:05;6.75;;;2.58;;
64826;SDS011;51265;53.972;12.286;2023-05-23T00:03:32;5.55;;;2.60;;
64826;SDS011;51265;53.972;12.286;2023-05-23T00:05:59;8.38;;;2.55;;
64826;SDS011;51265;53.972;12.286;2023-05-23T00:08:27;8.35;;;2.20;;
64826;SDS011;51265;53.972;12.286;2023-05-23T00:10:53;4.22;;;2.65;;
64826;SDS011;51265;53.972;12.286;2023-05-23T00:13:20;5.82;;;2.60;;
64826;SDS011;51265;53.972;12.286;2023-05-23T00:15:46;4.63;;;2.53;;
64826;SDS011;51265;53.972;12.286;2023-05-23T00:18:13;5.75;;;2.50;;
64826;SDS011;51265;53.972;12.286;2023-05-23T00:20:41;4.07;;;2.40;;
64826;SDS011;51265;53.972;12.286;2023-05-23T00:23:08;4.43;;;2.50;;
64826;SDS011;51265;53.972;12.286;2023-05-23T00:25:35;6.22;;;2.40;;
64826;SDS011;51265;53.972;12.286;2023-05-23T00:28:02;5.97;;;2.45;;
64826;SDS011;51265;53.972;12.286;2023-05-23T00:30:30;4.68;;;2.65;;
64826;SDS011;51265;53.972;12.286;2023-05-23T00:32:57;6.13;;;2.63;;
64826;SDS011;51265;53.972;12.286;2023-05-23T00:35:25;4.60;;;2.22;;
64826;SDS011;51265;53.972;12.286;2023-05-23T00:37:52;4.60;;;2.80;;
64826;SDS011;51265;53.972;12.286;2023-05-23T00:40:19;7.13;;;2.60;;
64826;SDS011;51265;53.972;12.286;2023-05-23T00:42:46;5.22;;;2.70;;
64826;SDS011;51265;53.972;12.286;2023-05-23T00:45:13;4.90;;;2.58;;
64826;SDS011;51265;53.972;12.286;2023-05-23T00:47:40;4.95;;;2.35;;
64826;SDS011;51265;53.972;12.286;2023-05-23T00:50:08;4.55;;;2.40;;
64826;SDS011;51265;53.972;12.286;2023-05-23T00:52:40;3.83;;;2.20;;
64826;SDS011;51265;53.972;12.286;2023-05-23T00:55:07;4.03;;;2.63;;
64826;SDS011;51265;53.972;12.286;2023-05-23T00:57:35;5.53;;;2.15;;
64826;SDS011;51265;53.972;12.286;2023-05-23T01:00:14;6.07;;;2.60;;
64826;SDS011;51265;53.972;12.286;2023-05-23T01:02:45;3.85;;;2.40;;
64826;SDS011;51265;53.972;12.286;2023-05-23T01:05:13;3.72;;;2.60;;
64826;SDS011;51265;53.972;12.286;2023-05-23T01:07:42;3.67;;;2.42;;
64826;SDS011;51265;53.972;12.286;2023-05-23T01:10:10;4.07;;;2.50;;
64826;SDS011;51265;53.972;12.286;2023-05-23T01:15:16;5.47;;;2.28;;
64826;SDS011;51265;53.972;12.286;2023-05-23T01:21:21;4.10;;;2.20;;
64826;SDS011;51265;53.972;12.286;2023-05-23T01:23:34;7.85;;;2.58;;
64826;SDS011;51265;53.972;12.286;2023-05-23T01:28:54;5.20;;;2.17;;
64826;SDS011;51265;53.972;12.286;2023-05-23T01:31:24;7.80;;;2.53;;
64826;SDS011;51265;53.972;12.286;2023-05-23T01:33:54;4.95;;;2.60;;
64826;SDS011;51265;53.972;12.286;2023-05-23T01:36:21;4.05;;;2.13;;
64826;SDS011;51265;53.972;12.286;2023-05-23T01:38:48;5.53;;;2.40;;
64826;SDS011;51265;53.972;12.286;2023-05-23T01:41:14;4.50;;;2.42;;
64826;SDS011;51265;53.972;12.286;2023-05-23T01:43:41;5.85;;;2.40;;
64826;SDS011;51265;53.972;12.286;2023-05-23T01:46:07;6.63;;;2.33;;
64826;SDS011;51265;53.972;12.286;2023-05-23T01:48:34;5.35;;;2.33;;
64826;SDS011;51265;53.972;12.286;2023-05-23T01:51:03;5.05;;;2.55;;
64826;SDS011;51265;53.972;12.286;2023-05-23T01:53:31;4.65;;;2.28;;
64826;SDS011;51265;53.972;12.286;2023-05-23T01:55:58;2.85;;;2.00;;
64826;SDS011;51265;53.972;12.286;2023-05-23T01:58:28;4.57;;;2.33;;
64826;SDS011;51265;53.972;12.286;2023-05-23T02:00:56;6.80;;;2.35;;
64826;SDS011;51265;53.972;12.286;2023-05-23T02:03:23;4.40;;;2.15;;
64826;SDS011;51265;53.972;12.286;2023-05-23T02:05:49;4.10;;;2.55;;
64826;SDS011;51265;53.972;12.286;2023-05-23T02:08:16;4.55;;;2.38;;
64826;SDS011;51265;53.972;12.286;2023-05-23T02:10:42;3.20;;;2.13;;
64826;SDS011;51265;53.972;12.286;2023-05-23T02:13:08;4.43;;;2.30;;
64826;SDS011;51265;53.972;12.286;2023-05-23T02:15:35;4.88;;;2.30;;
64826;SDS011;51265;53.972;12.286;2023-05-23T02:18:01;3.90;;;2.28;;
64826;SDS011;51265;53.972;12.286;2023-05-23T02:20:30;5.80;;;2.47;;
64826;SDS011;51265;53.972;12.286;2023-05-23T02:22:56;5.38;;;2.15;;
64826;SDS011;51265;53.972;12.286;2023-05-23T02:25:22;6.40;;;2.30;;
64826;SDS011;51265;53.972;12.286;2023-05-23T02:27:49;3.92;;;2.50;;
64826;SDS011;51265;53.972;12.286;2023-05-23T02:30:15;6.45;;;2.35;;
64826;SDS011;51265;53.972;12.286;2023-05-23T02:32:51;5.25;;;2.83;;
64826;SDS011;51265;53.972;12.286;2023-05-23T02:35:18;4.97;;;2.50;;
64826;SDS011;51265;53.972;12.286;2023-05-23T02:37:44;6.65;;;3.00;;
64826;SDS011;51265;53.972;12.286;2023-05-23T02:40:11;7.75;;;2.47;;
64826;SDS011;51265;53.972;12.286;2023-05-23T02:42:37;5.63;;;2.47;;
64826;SDS011;51265;53.972;12.286;2023-05-23T02:45:04;5.53;;;2.33;;
64826;SDS011;51265;53.972;12.286;2023-05-23T02:47:31;5.70;;;2.65;;
64826;SDS011;51265;53.972;12.286;2023-05-23T02:49:57;5.47;;;2.55;;
64826;SDS011;51265;53.972;12.286;2023-05-23T02:52:24;5.65;;;2.60;;
64826;SDS011;51265;53.972;12.286;2023-05-23T02:54:51;6.95;;;2.00;;
64826;SDS011;51265;53.972;12.286;2023-05-23T02:57:17;5.45;;;2.90;;
64826;SDS011;51265;53.972;12.286;2023-05-23T02:59:43;5.63;;;2.78;;
64826;SDS011;51265;53.972;12.286;2023-05-23T03:02:10;5.28;;;2.55;;
64826;SDS011;51265;53.972;12.286;2023-05-23T03:04:36;5.60;;;2.67;;
64826;SDS011;51265;53.972;12.286;2023-05-23T03:07:03;7.85;;;2.40;;
64826;SDS011;51265;53.972;12.286;2023-05-23T03:09:31;8.25;;;2.67;;
64826;SDS011;51265;53.972;12.286;2023-05-23T03:11:57;4.43;;;2.42;;
64826;SDS011;51265;53.972;12.286;2023-05-23T03:14:24;8.07;;;2.63;;
64826;SDS011;51265;53.972;12.286;2023-05-23T03:16:50;3.63;;;2.15;;
64826;SDS011;51265;53.972;12.286;2023-05-23T03:19:16;4.70;;;2.30;;
64826;SDS011;51265;53.972;12.286;2023-05-23T03:21:43;3.22;;;2.05;;
64826;SDS011;51265;53.972;12.286;2023-05-23T03:24:09;5.15;;;2.35;;
64826;SDS011;51265;53.972;12.286;2023-05-23T03:26:36;5.28;;;2.53;;
64826;SDS011;51265;53.972;12.286;2023-05-23T03:29:03;4.03;;;2.22;;
64826;SDS011;51265;53.972;12.286;2023-05-23T03:31:29;4.88;;;2.38;;
64826;SDS011;51265;53.972;12.286;2023-05-23T03:33:55;3.92;;;1.92;;
64826;SDS011;51265;53.972;12.286;2023-05-23T03:36:22;5.47;;;2.67;;
64826;SDS011;51265;53.972;12.286;2023-05-23T03:38:51;5.10;;;2.58;;
64826;SDS011;51265;53.972;12.286;2023-05-23T03:41:18;5.38;;;2.60;;
64826;SDS011;51265;53.972;12.286;2023-05-23T03:43:44;4.85;;;2.28;;
64826;SDS011;51265;53.972;12.286;2023-05-23T03:46:12;6.22;;;2.47;;
64826;SDS011;51265;53.972;12.286;2023-05-23T03:48:38;3.53;;;2.40;;
64826;SDS011;51265;53.972;12.286;2023-05-23T03:51:05;4.30;;;2.30;;
64826;SDS011;51265;53.972;12.286;2023-05-23T03:53:31;4.13;;;2.70;;
64826;SDS011;51265;53.972;12.286;2023-05-23T03:55:58;5.25;;;2.58;;
64826;SDS011;51265;53.972;12.286;2023-05-23T03:58:25;6.07;;;2.75;;
64826;SDS011;51265;53.972;12.286;2023-05-23T04:00:55;5.63;;;2.83;;
64826;SDS011;51265;53.972;12.286;2023-05-23T04:03:22;4.85;;;2.63;;
64826;SDS011;51265;53.972;12.286;2023-05-23T04:05:51;6.75;;;2.33;;
64826;SDS011;51265;53.972;12.286;2023-05-23T04:08:17;4.47;;;2.50;;
64826;SDS011;51265;53.972;12.286;2023-05-23T04:10:48;5.82;;;2.42;;
64826;SDS011;51265;53.972;12.286;2023-05-23T04:13:14;6.40;;;2.72;;
64826;SDS011;51265;53.972;12.286;2023-05-23T04:15:41;8.93;;;2.65;;
64826;SDS011;51265;53.972;12.286;2023-05-23T04:18:10;8.50;;;2.80;;
64826;SDS011;51265;53.972;12.286;2023-05-23T04:20:37;10.68;;;2.72;;
64826;SDS011;51265;53.972;12.286;2023-05-23T04:23:04;5.13;;;2.15;;
64826;SDS011;51265;53.972;12.286;2023-05-23T04:25:34;4.25;;;2.40;;
64826;SDS011;51265;53.972;12.286;2023-05-23T04:28:09;4.80;;;2.63;;
64826;SDS011;51265;53.972;12.286;2023-05-23T04:30:36;4.00;;;2.67;;
64826;SDS011;51265;53.972;12.286;2023-05-23T04:33:03;3.53;;;2.38;;
64826;SDS011;51265;53.972;12.286;2023-05-23T04:35:31;6.88;;;3.00;;
64826;SDS011;51265;53.972;12.286;2023-05-23T04:37:59;5.50;;;2.33;;
64826;SDS011;51265;53.972;12.286;2023-05-23T04:40:30;6.10;;;2.88;;
64826;SDS011;51265;53.972;12.286;2023-05-23T04:43:14;6.00;;;2.45;;
64826;SDS011;51265;53.972;12.286;2023-05-23T04:45:48;5.25;;;2.67;;
64826;SDS011;51265;53.972;12.286;2023-05-23T04:48:30;8.18;;;2.42;;
64826;SDS011;51265;53.972;12.286;2023-05-23T04:50:57;3.33;;;2.60;;
64826;SDS011;51265;53.972;12.286;2023-05-23T04:53:28;4.88;;;2.55;;
64826;SDS011;51265;53.972;12.286;2023-05-23T04:55:55;4.88;;;2.60;;
64826;SDS011;51265;53.972;12.286;2023-05-23T04:58:22;5.82;;;2.58;;
64826;SDS011;51265;53.972;12.286;2023-05-23T05:00:54;4.05;;;2.50;;
64826;SDS011;51265;53.972;12.286;2023-05-23T05:03:20;5.95;;;2.40;;
64826;SDS011;51265;53.972;12.286;2023-05-23T05:05:47;13.98;;;9.40;;
64826;SDS011;51265;53.972;12.286;2023-05-23T05:08:14;15.95;;;10.23;;
64826;SDS011;51265;53.972;12.286;2023-05-23T05:10:45;4.75;;;2.95;;
64826;SDS011;51265;53.972;12.286;2023-05-23T05:13:11;5.45;;;3.33;;
64826;SDS011;51265;53.972;12.286;2023-05-23T05:15:44;5.57;;;2.83;;
64826;SDS011;51265;53.972;12.286;2023-05-23T05:18:11;8.18;;;3.47;;
64826;SDS011;51265;53.972;12.286;2023-05-23T05:20:39;4.68;;;2.67;;
64826;SDS011;51265;53.972;12.286;2023-05-23T05:23:05;4.47;;;2.67;;
64826;SDS011;51265;53.972;12.286;2023-05-23T05:25:35;5.60;;;2.70;;
64826;SDS011;51265;53.972;12.286;2023-05-23T05:28:03;4.20;;;2.50;;
64826;SDS011;51265;53.972;12.286;2023-05-23T05:30:32;5.47;;;3.17;;
64826;SDS011;51265;53.972;12.286;2023-05-23T05:33:01;8.55;;;3.00;;
64826;SDS011;51265;53.972;12.286;2023-05-23T05:35:30;3.85;;;2.42;;
64826;SDS011;51265;53.972;12.286;2023-05-23T05:37:58;6.22;;;3.15;;
64826;SDS011;51265;53.972;12.286;2023-05-23T05:40:25;25.38;;;15.27;;
64826;SDS011;51265;53.972;12.286;2023-05-23T05:42:51;5.35;;;3.10;;
64826;SDS011;51265;53.972;12.286;2023-05-23T05:45:18;5.93;;;2.85;;
64826;SDS011;51265;53.972;12.286;2023-05-23T05:47:46;4.25;;;2.55;;
64826;SDS011;51265;53.972;12.286;2023-05-23T05:50:13;8.32;;;3.00;;
64826;SDS011;51265;53.972;12.286;2023-05-23T05:52:40;6.60;;;2.97;;
64826;SDS011;51265;53.972;12.286;2023-05-23T05:55:08;5.05;;;2.92;;
64826;SDS011;51265;53.972;12.286;2023-05-23T05:57:41;6.07;;;3.03;;
64826;SDS011;51265;53.972;12.286;2023-05-23T06:00:09;6.85;;;2.95;;
64826;SDS011;51265;53.972;12.286;2023-05-23T06:02:44;6.25;;;3.67;;
64826;SDS011;51265;53.972;12.286;2023-05-23T06:05:22;8.13;;;3.83;;
64826;SDS011;51265;53.972;12.286;2023-05-23T06:07:50;8.35;;;4.13;;
64826;SDS011;51265;53.972;12.286;2023-05-23T06:10:17;10.60;;;3.90;;
64826;SDS011;51265;53.972;12.286;2023-05-23T06:12:44;8.40;;;4.57;;
64826;SDS011;51265;53.972;12.286;2023-05-23T06:15:11;7.00;;;3.65;;
64826;SDS011;51265;53.972;12.286;2023-05-23T06:17:40;6.75;;;4.18;;
64826;SDS011;51265;53.972;12.286;2023-05-23T06:20:07;8.40;;;3.60;;
64826;SDS011;51265;53.972;12.286;2023-05-23T06:22:36;6.78;;;3.92;;
64826;SDS011;51265;53.972;12.286;2023-05-23T06:25:05;5.68;;;4.03;;
64826;SDS011;51265;53.972;12.286;2023-05-23T06:27:32;10.68;;;3.80;;
64826;SDS011;51265;53.972;12.286;2023-05-23T06:29:58;10.07;;;3.95;;
64826;SDS011;51265;53.972;12.286;2023-05-23T06:32:25;6.22;;;3.67;;
64826;SDS011;51265;53.972;12.286;2023-05-23T06:34:51;4.72;;;3.35;;
64826;SDS011;51265;53.972;12.286;2023-05-23T06:37:17;8.00;;;3.67;;
64826;SDS011;51265;53.972;12.286;2023-05-23T06:39:44;6.75;;;3.28;;
64826;SDS011;51265;53.972;12.286;2023-05-23T06:42:10;4.85;;;3.20;;
64826;SDS011;51265;53.972;12.286;2023-05-23T06:44:55;4.55;;;3.40;;
64826;SDS011;51265;53.972;12.286;2023-05-23T06:47:22;6.85;;;3.50;;
64826;SDS011;51265;53.972;12.286;2023-05-23T06:49:48;7.63;;;4.00;;
64826;SDS011;51265;53.972;12.286;2023-05-23T06:52:15;7.88;;;3.70;;
64826;SDS011;51265;53.972;12.286;2023-05-23T06:54:42;9.07;;;3.42;;
64826;SDS011;51265;53.972;12.286;2023-05-23T06:57:09;6.20;;;3.70;;
64826;SDS011;51265;53.972;12.286;2023-05-23T06:59:36;7.25;;;3.72;;
64826;SDS011;51265;53.972;12.286;2023-05-23T07:02:04;8.52;;;3.65;;
64826;SDS011;51265;53.972;12.286;2023-05-23T07:04:30;5.07;;;3.78;;
64826;SDS011;51265;53.972;12.286;2023-05-23T07:07:01;8.05;;;4.15;;
64826;SDS011;51265;53.972;12.286;2023-05-23T07:09:28;6.57;;;3.72;;
64826;SDS011;51265;53.972;12.286;2023-05-23T07:12:09;7.30;;;4.38;;
64826;SDS011;51265;53.972;12.286;2023-05-23T07:14:38;6.22;;;4.40;;
64826;SDS011;51265;53.972;12.286;2023-05-23T07:17:05;6.13;;;3.85;;
64826;SDS011;51265;53.972;12.286;2023-05-23T07:19:33;6.97;;;4.22;;
64826;SDS011;51265;53.972;12.286;2023-05-23T07:22:00;6.15;;;3.90;;
64826;SDS011;51265;53.972;12.286;2023-05-23T07:24:27;6.40;;;4.13;;
64826;SDS011;51265;53.972;12.286;2023-05-23T07:26:56;8.98;;;4.38;;
64826;SDS011;51265;53.972;12.286;2023-05-23T07:29:23;7.00;;;4.80;;
64826;SDS011;51265;53.972;12.286;2023-05-23T07:31:51;8.32;;;4.38;;
64826;SDS011;51265;53.972;12.286;2023-05-23T07:34:19;9.05;;;4.45;;
64826;SDS011;51265;53.972;12.286;2023-05-23T07:36:53;6.32;;;4.38;;
64826;SDS011;51265;53.972;12.286;2023-05-23T07:39:20;6.55;;;4.60;;
64826;SDS011;51265;53.972;12.286;2023-05-23T07:41:50;8.60;;;4.07;;
64826;SDS011;51265;53.972;12.286;2023-05-23T07:44:17;6.47;;;4.95;;
64826;SDS011;51265;53.972;12.286;2023-05-23T07:46:44;6.28;;;4.45;;
64826;SDS011;51265;53.972;12.286;2023-05-23T07:49:11;10.90;;;4.32;;
64826;SDS011;51265;53.972;12.286;2023-05-23T07:51:37;6.97;;;4.60;;
64826;SDS011;51265;53.972;12.286;2023-05-23T07:54:05;6.95;;;4.25;;
64826;SDS011;51265;53.972;12.286;2023-05-23T07:56:32;5.63;;;4.20;;
64826;SDS011;51265;53.972;12.286;2023-05-23T07:58:58;6.45;;;4.78;;
64826;SDS011;51265;53.972;12.286;2023-05-23T08:01:25;7.93;;;4.90;;
64826;SDS011;51265;53.972;12.286;2023-05-23T08:04:12;7.05;;;4.65;;
64826;SDS011;51265;53.972;12.286;2023-05-23T08:06:43;8.07;;;5.03;;
64826;SDS011;51265;53.972;12.286;2023-05-23T08:09:12;8.25;;;4.70;;
64826;SDS011;51265;53.972;12.286;2023-05-23T08:11:44;5.85;;;4.65;;
64826;SDS011;51265;53.972;12.286;2023-05-23T08:14:10;6.70;;;4.15;;
64826;SDS011;51265;53.972;12.286;2023-05-23T08:16:37;7.30;;;4.05;;
64826;SDS011;51265;53.972;12.286;2023-05-23T08:19:06;6.15;;;4.43;;
64826;SDS011;51265;53.972;12.286;2023-05-23T08:21:34;6.95;;;4.05;;
64826;SDS011;51265;53.972;12.286;2023-05-23T08:24:01;6.03;;;4.20;;
64826;SDS011;51265;53.972;12.286;2023-05-23T08:26:28;5.10;;;4.07;;
64826;SDS011;51265;53.972;12.286;2023-05-23T08:29:01;6.68;;;4.43;;
64826;SDS011;51265;53.972;12.286;2023-05-23T08:31:28;6.57;;;4.18;;
64826;SDS011;51265;53.972;12.286;2023-05-23T08:33:56;9.82;;;4.70;;
64826;SDS011;51265;53.972;12.286;2023-05-23T08:36:24;7.78;;;4.35;;
64826;SDS011;51265;53.972;12.286;2023-05-23T08:38:50;8.95;;;4.65;;
64826;SDS011;51265;53.972;12.286;2023-05-23T08:41:28;9.07;;;4.97;;
64826;SDS011;51265;53.972;12.286;2023-05-23T08:44:02;11.80;;;5.38;;
64826;SDS011;51265;53.972;12.286;2023-05-23T08:46:33;9.15;;;5.45;;
64826;SDS011;51265;53.972;12.286;2023-05-23T08:49:09;10.15;;;5.97;;
64826;SDS011;51265;53.972;12.286;2023-05-23T08:51:41;10.85;;;5.97;;
64826;SDS011;51265;53.972;12.286;2023-05-23T08:54:13;12.68;;;5.53;;
64826;SDS011;51265;53.972;12.286;2023-05-23T08:56:39;5.95;;;4.60;;
64826;SDS011;51265;53.972;12.286;2023-05-23T08:59:09;5.78;;;4.25;;
64826;SDS011;51265;53.972;12.286;2023-05-23T09:01:37;6.32;;;4.35;;
64826;SDS011;51265;53.972;12.286;2023-05-23T09:04:07;7.03;;;4.70;;
64826;SDS011;51265;53.972;12.286;2023-05-23T09:07:03;6.22;;;4.43;;
64826;SDS011;51265;53.972;12.286;2023-05-23T09:09:31;6.55;;;4.47;;
64826;SDS011;51265;53.972;12.286;2023-05-23T09:12:00;8.30;;;5.00;;
64826;SDS011;51265;53.972;12.286;2023-05-23T09:14:29;6.90;;;4.72;;
64826;SDS011;51265;53.972;12.286;2023-05-23T09:17:02;5.80;;;4.40;;
64826;SDS011;51265;53.972;12.286;2023-05-23T09:19:45;6.15;;;4.60;;
64826;SDS011;51265;53.972;12.286;2023-05-23T09:22:36;5.78;;;4.72;;
64826;SDS011;51265;53.972;12.286;2023-05-23T09:25:08;6.93;;;4.43;;
64826;SDS011;51265;53.972;12.286;2023-05-23T09:27:37;7.35;;;5.53;;
64826;SDS011;51265;53.972;12.286;2023-05-23T09:30:07;9.95;;;6.05;;
64826;SDS011;51265;53.972;12.286;2023-05-23T09:32:58;9.45;;;7.28;;
64826;SDS011;51265;53.972;12.286;2023-05-23T09:35:28;8.02;;;6.03;;
64826;SDS011;51265;53.972;12.286;2023-05-23T09:37:55;11.75;;;8.60;;
64826;SDS011;51265;53.972;12.286;2023-05-23T09:40:31;14.75;;;10.48;;
64826;SDS011;51265;53.972;12.286;2023-05-23T09:43:01;13.13;;;11.75;;
64826;SDS011;51265;53.972;12.286;2023-05-23T09:45:29;14.35;;;12.00;;
64826;SDS011;51265;53.972;12.286;2023-05-23T09:47:56;15.55;;;13.90;;
64826;SDS011;51265;53.972;12.286;2023-05-23T09:50:23;14.18;;;12.63;;
64826;SDS011;51265;53.972;12.286;2023-05-23T09:52:56;14.90;;;12.40;;
64826;SDS011;51265;53.972;12.286;2023-05-23T09:55:22;15.35;;;12.73;;
64826;SDS011;51265;53.972;12.286;2023-05-23T09:57:52;15.32;;;9.77;;
64826;SDS011;51265;53.972;12.286;2023-05-23T10:00:22;9.52;;;8.55;;
64826;SDS011;51265;53.972;12.286;2023-05-23T10:08:11;12.30;;;6.85;;
64826;SDS011;51265;53.972;12.286;2023-05-23T10:11:05;9.02;;;5.47;;
64826;SDS011;51265;53.972;12.286;2023-05-23T10:13:39;11.65;;;5.57;;
64826;SDS011;51265;53.972;12.286;2023-05-23T10:16:15;9.15;;;5.57;;
64826;SDS011;51265;53.972;12.286;2023-05-23T10:18:47;6.93;;;5.82;;
64826;SDS011;51265;53.972;12.286;2023-05-23T10:21:23;12.57;;;6.30;;
64826;SDS011;51265;53.972;12.286;2023-05-23T10:23:57;8.73;;;5.78;;
64826;SDS011;51265;53.972;12.286;2023-05-23T10:26:26;14.07;;;6.78;;
64826;SDS011;51265;53.972;12.286;2023-05-23T10:28:53;9.63;;;6.60;;
64826;SDS011;51265;53.972;12.286;2023-05-23T10:31:21;9.43;;;5.80;;
64826;SDS011;51265;53.972;12.286;2023-05-23T10:33:54;8.55;;;5.63;;
64826;SDS011;51265;53.972;12.286;2023-05-23T10:36:28;8.93;;;5.25;;
64826;SDS011;51265;53.972;12.286;2023-05-23T10:39:11;8.50;;;5.38;;
64826;SDS011;51265;53.972;12.286;2023-05-23T10:41:47;7.32;;;4.30;;
64826;SDS011;51265;53.972;12.286;2023-05-23T10:46:55;6.70;;;5.00;;
64826;SDS011;51265;53.972;12.286;2023-05-23T10:49:57;12.18;;;4.88;;
64826;SDS011;51265;53.972;12.286;2023-05-23T10:52:22;7.32;;;4.65;;
64826;SDS011;51265;53.972;12.286;2023-05-23T10:54:52;10.23;;;5.38;;
64826;SDS011;51265;53.972;12.286;2023-05-23T10:57:29;10.13;;;5.65;;
64826;SDS011;51265;53.972;12.286;2023-05-23T10:59:56;9.80;;;5.63;;
64826;SDS011;51265;53.972;12.286;2023-05-23T11:02:26;13.27;;;6.18;;
64826;SDS011;51265;53.972;12.286;2023-05-23T11:13:18;11.00;;;5.28;;
64826;SDS011;51265;53.972;12.286;2023-05-23T11:15:46;12.43;;;6.28;;
64826;SDS011;51265;53.972;12.286;2023-05-23T11:18:21;17.70;;;6.60;;
64826;SDS011;51265;53.972;12.286;2023-05-23T11:20:59;11.43;;;5.75;;
64826;SDS011;51265;53.972;12.286;2023-05-23T11:23:38;13.23;;;5.90;;
64826;SDS011;51265;53.972;12.286;2023-05-23T11:26:27;8.18;;;5.63;;
64826;SDS011;51265;53.972;12.286;2023-05-23T11:28:55;9.57;;;6.28;;
64826;SDS011;51265;53.972;12.286;2023-05-23T11:31:22;10.65;;;6.30;;
64826;SDS011;51265;53.972;12.286;2023-05-23T11:33:49;12.00;;;5.70;;
64826;SDS011;51265;53.972;12.286;2023-05-23T11:36:16;10.98;;;5.90;;
64826;SDS011;51265;53.972;12.286;2023-05-23T11:38:43;9.52;;;5.72;;
64826;SDS011;51265;53.972;12.286;2023-05-23T11:41:09;10.18;;;5.72;;
64826;SDS011;51265;53.972;12.286;2023-05-23T11:43:36;13.93;;;6.70;;
64826;SDS011;51265;53.972;12.286;2023-05-23T11:46:08;15.68;;;6.88;;
64826;SDS011;51265;53.972;12.286;2023-05-23T11:48:35;8.60;;;6.13;;
64826;SDS011;51265;53.972;12.286;2023-05-23T11:51:01;10.55;;;6.95;;
64826;SDS011;51265;53.972;12.286;2023-05-23T11:53:28;9.48;;;5.93;;
64826;SDS011;51265;53.972;12.286;2023-05-23T11:55:56;10.95;;;6.60;;
64826;SDS011;51265;53.972;12.286;2023-05-23T11:58:25;11.60;;;6.70;;
64826;SDS011;51265;53.972;12.286;2023-05-23T12:01:10;10.73;;;5.70;;
64826;SDS011;51265;53.972;12.286;2023-05-23T12:03:48;11.73;;;6.30;;
64826;SDS011;51265;53.972;12.286;2023-05-23T12:06:23;14.43;;;7.03;;
64826;SDS011;51265;53.972;12.286;2023-05-23T12:08:50;12.98;;;8.55;;
64826;SDS011;51265;53.972;12.286;2023-05-23T12:11:17;11.88;;;8.02;;
64826;SDS011;51265;53.972;12.286;2023-05-23T12:13:43;13.98;;;8.80;;
64826;SDS011;51265;53.972;12.286;2023-05-23T12:16:11;17.00;;;7.63;;
64826;SDS011;51265;53.972;12.286;2023-05-23T12:18:38;11.38;;;8.02;;
64826;SDS011;51265;53.972;12.286;2023-05-23T12:21:05;11.05;;;7.80;;
64826;SDS011;51265;53.972;12.286;2023-05-23T12:23:33;14.10;;;8.50;;
64826;SDS011;51265;53.972;12.286;2023-05-23T12:26:02;246.50;;;20.48;;
64826;SDS011;51265;53.972;12.286;2023-05-23T12:28:36;16.33;;;8.52;;
64826;SDS011;51265;53.972;12.286;2023-05-23T12:31:11;13.27;;;9.15;;
64826;SDS011;51265;53.972;12.286;2023-05-23T12:33:38;11.82;;;8.50;;
64826;SDS011;51265;53.972;12.286;2023-05-23T12:36:13;11.55;;;8.25;;
64826;SDS011;51265;53.972;12.286;2023-05-23T12:38:40;18.52;;;9.45;;
64826;SDS011;51265;53.972;12.286;2023-05-23T12:41:10;17.30;;;9.55;;
64826;SDS011;51265;53.972;12.286;2023-05-23T12:43:54;14.68;;;9.95;;
64826;SDS011;51265;53.972;12.286;2023-05-23T12:46:22;17.08;;;9.60;;
64826;SDS011;51265;53.972;12.286;2023-05-23T12:48:50;16.42;;;10.13;;
64826;SDS011;51265;53.972;12.286;2023-05-23T12:51:16;15.80;;;9.73;;
64826;SDS011;51265;53.972;12.286;2023-05-23T12:53:43;17.45;;;9.13;;
64826;SDS011;51265;53.972;12.286;2023-05-23T12:56:10;11.93;;;8.32;;
64826;SDS011;51265;53.972;12.286;2023-05-23T12:58:36;13.95;;;9.60;;
64826;SDS011;51265;53.972;12.286;2023-05-23T13:01:03;14.32;;;9.27;;
64826;SDS011;51265;53.972;12.286;2023-05-23T13:03:29;14.70;;;9.98;;
64826;SDS011;51265;53.972;12.286;2023-05-23T13:06:01;12.10;;;8.57;;
64826;SDS011;51265;53.972;12.286;2023-05-23T13:08:28;11.60;;;8.88;;
64826;SDS011;51265;53.972;12.286;2023-05-23T13:10:54;12.52;;;9.30;;
64826;SDS011;51265;53.972;12.286;2023-05-23T13:13:21;16.17;;;9.57;;
64826;SDS011;51265;53.972;12.286;2023-05-23T13:15:48;16.90;;;9.02;;
64826;SDS011;51265;53.972;12.286;2023-05-23T13:18:15;15.05;;;9.07;;
64826;SDS011;51265;53.972;12.286;2023-05-23T13:20:41;15.70;;;9.20;;
64826;SDS011;51265;53.972;12.286;2023-05-23T13:23:08;12.27;;;8.75;;
64826;SDS011;51265;53.972;12.286;2023-05-23T13:25:34;13.80;;;8.52;;
64826;SDS011;51265;53.972;12.286;2023-05-23T13:28:01;15.70;;;7.20;;
64826;SDS011;51265;53.972;12.286;2023-05-23T13:30:27;8.80;;;6.03;;
64826;SDS011;51265;53.972;12.286;2023-05-23T13:32:54;10.73;;;5.55;;
64826;SDS011;51265;53.972;12.286;2023-05-23T13:35:20;9.07;;;5.03;;
64826;SDS011;51265;53.972;12.286;2023-05-23T13:37:47;10.55;;;6.00;;
64826;SDS011;51265;53.972;12.286;2023-05-23T13:40:17;7.32;;;4.90;;
64826;SDS011;51265;53.972;12.286;2023-05-23T13:42:46;9.65;;;5.45;;
64826;SDS011;51265;53.972;12.286;2023-05-23T13:45:15;10.02;;;5.43;;
64826;SDS011;51265;53.972;12.286;2023-05-23T13:47:43;10.70;;;5.35;;
64826;SDS011;51265;53.972;12.286;2023-05-23T13:50:09;11.98;;;5.72;;
64826;SDS011;51265;53.972;12.286;2023-05-23T13:52:36;14.13;;;6.10;;
64826;SDS011;51265;53.972;12.286;2023-05-23T13:55:03;17.33;;;6.93;;
64826;SDS011;51265;53.972;12.286;2023-05-23T13:57:30;12.25;;;6.05;;
64826;SDS011;51265;53.972;12.286;2023-05-23T13:59:56;11.65;;;4.70;;
64826;SDS011;51265;53.972;12.286;2023-05-23T14:02:22;12.88;;;5.25;;
64826;SDS011;51265;53.972;12.286;2023-05-23T14:04:49;10.30;;;4.82;;
64826;SDS011;51265;53.972;12.286;2023-05-23T14:07:16;9.93;;;4.25;;
64826;SDS011;51265;53.972;12.286;2023-05-23T14:09:43;9.07;;;4.22;;
64826;SDS011;51265;53.972;12.286;2023-05-23T14:12:10;10.52;;;3.97;;
64826;SDS011;51265;53.972;12.286;2023-05-23T14:14:36;11.45;;;4.55;;
64826;SDS011;51265;53.972;12.286;2023-05-23T14:17:03;9.93;;;4.90;;
64826;SDS011;51265;53.972;12.286;2023-05-23T14:19:30;14.68;;;6.68;;
64826;SDS011;51265;53.972;12.286;2023-05-23T14:21:56;13.80;;;7.47;;
64826;SDS011;51265;53.972;12.286;2023-05-23T14:24:23;18.73;;;8.10;;
64826;SDS011;51265;53.972;12.286;2023-05-23T14:26:49;21.20;;;8.57;;
64826;SDS011;51265;53.972;12.286;2023-05-23T14:29:15;19.02;;;8.45;;
64826;SDS011;51265;53.972;12.286;2023-05-23T14:31:42;22.38;;;9.60;;
64826;SDS011;51265;53.972;12.286;2023-05-23T14:34:08;25.70;;;9.82;;
64826;SDS011;51265;53.972;12.286;2023-05-23T14:36:35;24.65;;;9.07;;
64826;SDS011;51265;53.972;12.286;2023-05-23T14:39:02;27.77;;;8.60;;
64826;SDS011;51265;53.972;12.286;2023-05-23T14:41:30;25.13;;;8.43;;
64826;SDS011;51265;53.972;12.286;2023-05-23T14:43:57;24.83;;;8.98;;
64826;SDS011;51265;53.972;12.286;2023-05-23T14:46:24;21.90;;;8.07;;
64826;SDS011;51265;53.972;12.286;2023-05-23T14:48:50;22.38;;;8.45;;
64826;SDS011;51265;53.972;12.286;2023-05-23T14:51:16;18.80;;;7.15;;
64826;SDS011;51265;53.972;12.286;2023-05-23T14:53:43;22.88;;;7.43;;
64826;SDS011;51265;53.972;12.286;2023-05-23T14:56:09;21.20;;;7.68;;
64826;SDS011;51265;53.972;12.286;2023-05-23T14:58:35;18.63;;;6.80;;
64826;SDS011;51265;53.972;12.286;2023-05-23T15:01:02;19.55;;;6.38;;
64826;SDS011;51265;53.972;12.286;2023-05-23T15:03:28;22.30;;;7.63;;
64826;SDS011;51265;53.972;12.286;2023-05-23T15:05:55;20.10;;;6.60;;